Terminal Aerodrome Forecast
Issued by NWS

Home | Current Version | Previous Version | Text Only | Print | Product List | Glossary On
Versions: 1 2 3 4 5 6 7 8 9 10 11 12 13 14 15 16 17 18 19 20 21 22 23 24 25 26 27 28 29 30 31 32 33 34 35
789
FTUS43 KDLH 141257 AAA
TAFBRD
TAF AMD
KBRD 141257Z 1413/1512 27004KT P6SM VCSH OVC009
     FM141800 31007KT P6SM VCSH BKN015
     FM151000 31007KT P6SM BKN045=

USA.gov is the U.S. government's official web portal to all federal, state and local government web resources and services.